createdAt,value
2019-04-16T00:02:18.483Z,65.70
2019-04-16T00:04:53.353Z,65.60
2019-04-16T00:07:41.526Z,65.90
2019-04-16T00:10:20.762Z,65.60
2019-04-16T00:12:56.203Z,66.10
2019-04-16T00:15:29.060Z,65.80
2019-04-16T00:18:01.781Z,66.00
2019-04-16T00:20:37.958Z,66.10
2019-04-16T00:23:26.388Z,65.80
2019-04-16T00:25:58.159Z,66.00
2019-04-16T00:28:33.353Z,65.70
2019-04-16T00:31:06.169Z,65.40
2019-04-16T00:33:39.388Z,65.40
2019-04-16T00:36:15.383Z,65.30
2019-04-16T00:38:47.772Z,65.00
2019-04-16T00:41:20.289Z,65.10
2019-04-16T00:43:52.880Z,64.80
2019-04-16T00:46:25.568Z,65.10
2019-04-16T00:48:58.595Z,65.30
2019-04-16T00:51:30.979Z,65.80
2019-04-16T00:54:09.888Z,64.80
2019-04-16T00:56:39.057Z,64.70
2019-04-16T00:59:10.842Z,64.80
2019-04-16T01:01:42.410Z,65.30
2019-04-16T01:04:14.868Z,64.60
2019-04-16T01:06:47.430Z,64.50
2019-04-16T01:09:19.937Z,64.30
2019-04-16T01:11:52.516Z,64.20
2019-04-16T01:14:27.447Z,64.30
2019-04-16T01:17:03.843Z,64.10
2019-04-16T01:19:33.972Z,64.00
2019-04-16T01:22:06.627Z,63.80
2019-04-16T01:24:40.269Z,63.60
2019-04-16T01:27:11.515Z,63.60
2019-04-16T01:29:45.016Z,63.40
2019-04-16T01:32:19.151Z,63.00
2019-04-16T01:35:11.786Z,62.60
2019-04-16T01:38:04.445Z,62.50
2019-04-16T01:40:40.574Z,62.40
2019-04-16T01:43:11.866Z,62.40
2019-04-16T01:45:44.249Z,62.30
2019-04-16T01:48:18.573Z,61.90
2019-04-16T01:50:51.199Z,61.80
2019-04-16T01:53:23.028Z,61.70
2019-04-16T01:55:57.018Z,61.00
2019-04-16T01:58:33.854Z,61.20
2019-04-16T02:01:07.945Z,60.20
2019-04-16T02:03:41.244Z,60.40
2019-04-16T02:06:13.737Z,60.10
2019-04-16T02:08:46.265Z,59.90
2019-04-16T02:11:21.953Z,60.10
2019-04-16T02:13:53.760Z,60.00
2019-04-16T02:16:26.005Z,59.90
2019-04-16T02:19:00.759Z,59.80
2019-04-16T02:21:32.103Z,58.80
2019-04-16T02:24:07.673Z,58.80
2019-04-16T02:26:42.143Z,58.30
2019-04-16T02:29:14.726Z,58.30
2019-04-16T02:31:51.287Z,58.20
2019-04-16T02:34:21.917Z,58.20
2019-04-16T02:37:00.894Z,58.00
2019-04-16T02:39:46.976Z,57.50
2019-04-16T02:44:38.622Z,57.90
2019-04-16T02:47:11.395Z,57.70
2019-04-16T02:49:43.824Z,57.70
2019-04-16T02:52:19.209Z,57.70
2019-04-16T02:54:54.813Z,57.40
2019-04-16T02:57:30.533Z,57.40
2019-04-16T03:00:05.116Z,56.80
2019-04-16T03:02:40.674Z,56.50
2019-04-16T03:05:17.518Z,56.10
2019-04-16T03:07:51.456Z,56.20
2019-04-16T03:10:25.980Z,56.40
2019-04-16T03:13:00.826Z,56.50
2019-04-16T03:15:49.712Z,56.30
2019-04-16T03:18:26.196Z,56.30
2019-04-16T03:20:59.011Z,56.20
2019-04-16T03:23:36.487Z,56.10
2019-04-16T03:26:05.484Z,55.80
2019-04-16T03:28:42.726Z,55.70
2019-04-16T03:31:20.185Z,55.80
2019-04-16T03:33:50.227Z,55.70
2019-04-16T03:36:26.586Z,55.20
2019-04-16T03:38:56.759Z,55.20
2019-04-16T03:41:29.237Z,55.10
2019-04-16T03:44:04.136Z,54.70
2019-04-16T03:46:34.666Z,54.40
2019-04-16T03:49:09.981Z,54.00
2019-04-16T03:51:42.617Z,54.30
2019-04-16T03:54:14.590Z,53.40
2019-04-16T03:56:48.555Z,52.40
2019-04-16T03:59:21.237Z,52.60
2019-04-16T04:01:53.883Z,52.30
2019-04-16T04:04:29.005Z,51.60
2019-04-16T04:06:59.508Z,52.20
2019-04-16T04:09:32.512Z,52.50
2019-04-16T04:12:06.204Z,52.00
2019-04-16T04:14:38.588Z,51.60
2019-04-16T04:17:11.038Z,50.60
2019-04-16T04:19:43.480Z,50.50
2019-04-16T04:22:17.025Z,50.00
2019-04-16T04:24:49.389Z,50.90
2019-04-16T04:27:24.152Z,50.30
2019-04-16T04:29:57.265Z,49.20
2019-04-16T04:32:35.365Z,49.90
2019-04-16T04:35:05.488Z,49.40
2019-04-16T04:37:40.153Z,49.70
2019-04-16T04:40:15.854Z,50.00
2019-04-16T04:42:47.970Z,48.80
2019-04-16T04:45:20.767Z,48.50
2019-04-16T04:47:53.217Z,48.60
2019-04-16T04:50:28.720Z,48.30
2019-04-16T04:53:02.297Z,47.10
2019-04-16T04:55:35.058Z,48.10
2019-04-16T04:58:07.567Z,49.30
2019-04-16T05:00:41.124Z,49.20
2019-04-16T05:03:15.879Z,49.00
2019-04-16T05:05:50.517Z,48.30
2019-04-16T05:08:22.059Z,46.70
2019-04-16T05:10:59.784Z,47.10
2019-04-16T05:13:27.810Z,47.00
2019-04-16T05:16:02.011Z,45.50
2019-04-16T05:18:34.790Z,43.60
2019-04-16T05:21:07.423Z,43.10
2019-04-16T05:23:40.195Z,45.00
2019-04-16T05:26:13.981Z,45.40
2019-04-16T05:28:47.445Z,45.20
2019-04-16T05:31:24.384Z,44.30
2019-04-16T05:33:54.201Z,43.00
2019-04-16T05:36:30.033Z,43.00
2019-04-16T05:39:05.863Z,44.00
2019-04-16T05:41:40.261Z,43.20
2019-04-16T05:44:13.876Z,44.20
2019-04-16T05:46:47.940Z,43.20
2019-04-16T05:49:24.609Z,43.50
2019-04-16T05:51:53.862Z,43.50
2019-04-16T05:54:34.843Z,42.00
2019-04-16T05:57:11.061Z,41.70
2019-04-16T05:59:45.277Z,40.10
2019-04-16T06:02:19.952Z,40.10
2019-04-16T06:04:55.571Z,40.40
2019-04-16T06:07:26.235Z,39.00
2019-04-16T06:09:58.768Z,40.00
2019-04-16T06:12:39.884Z,41.40
2019-04-16T06:15:28.184Z,41.50
2019-04-16T06:18:21.265Z,39.50
2019-04-16T06:20:57.381Z,40.30
2019-04-16T06:23:32.669Z,39.90
2019-04-16T06:26:06.867Z,39.80
2019-04-16T06:28:42.592Z,39.50
2019-04-16T06:31:33.360Z,39.40
2019-04-16T06:34:09.203Z,39.60
2019-04-16T06:36:50.648Z,38.20
2019-04-16T06:39:42.637Z,37.70
2019-04-16T06:42:21.721Z,37.70
2019-04-16T06:44:54.836Z,37.10
2019-04-16T06:47:31.854Z,37.50
2019-04-16T06:50:31.213Z,37.10
2019-04-16T06:53:13.564Z,36.40
2019-04-16T06:55:51.142Z,36.60
2019-04-16T06:58:27.965Z,38.00
2019-04-16T07:01:10.604Z,38.10
2019-04-16T07:03:49.980Z,37.60
2019-04-16T07:06:40.186Z,37.80
2019-04-16T07:09:15.623Z,38.20
2019-04-16T07:11:54.542Z,35.00
2019-04-16T07:14:26.711Z,35.60
2019-04-16T07:17:00.139Z,35.80
2019-04-16T07:19:33.589Z,35.90
2019-04-16T07:22:11.413Z,36.50
2019-04-16T07:24:44.314Z,36.70
2019-04-16T07:27:20.201Z,37.40
2019-04-16T07:29:54.631Z,36.90
2019-04-16T07:32:45.377Z,35.90
2019-04-16T07:35:27.172Z,36.40
2019-04-16T07:38:16.941Z,35.60
2019-04-16T07:41:10.972Z,34.10
2019-04-16T07:43:58.331Z,35.40
2019-04-16T07:46:32.790Z,35.70
2019-04-16T07:49:08.653Z,36.10
2019-04-16T07:51:57.909Z,36.40
2019-04-16T07:54:49.767Z,36.90
2019-04-16T07:57:22.563Z,36.50
2019-04-16T07:59:54.359Z,37.00
2019-04-16T08:02:29.137Z,36.30
2019-04-16T08:05:07.450Z,34.00
2019-04-16T08:07:39.264Z,34.80
2019-04-16T08:10:16.876Z,35.30
2019-04-16T08:12:50.603Z,36.40
2019-04-16T08:15:23.902Z,35.50
2019-04-16T08:17:57.910Z,36.30
2019-04-16T08:20:33.183Z,36.50
2019-04-16T08:23:07.160Z,37.10
2019-04-16T08:25:41.527Z,36.70
2019-04-16T08:28:15.954Z,37.20
2019-04-16T08:30:50.016Z,37.30
2019-04-16T08:33:28.286Z,35.90
2019-04-16T08:35:59.040Z,36.40
2019-04-16T08:38:34.888Z,36.50
2019-04-16T08:41:07.536Z,36.70
2019-04-16T08:43:41.085Z,37.10
2019-04-16T08:46:16.012Z,37.00
2019-04-16T08:48:54.278Z,37.20
2019-04-16T08:51:30.686Z,35.80
2019-04-16T08:54:06.299Z,37.30
2019-04-16T08:56:40.211Z,37.30
2019-04-16T08:59:15.018Z,37.10
2019-04-16T09:01:47.848Z,38.00
2019-04-16T09:04:22.752Z,37.90
2019-04-16T09:07:09.679Z,38.30
2019-04-16T09:09:32.133Z,38.00
2019-04-16T09:12:29.177Z,37.60
2019-04-16T09:15:00.016Z,37.80
2019-04-16T09:17:33.918Z,38.20
2019-04-16T09:20:17.103Z,38.90
2019-04-16T09:22:53.675Z,38.80
2019-04-16T09:25:26.875Z,38.50
2019-04-16T09:28:13.154Z,38.80
2019-04-16T09:30:46.651Z,39.20
2019-04-16T09:33:20.981Z,38.60
2019-04-16T09:36:12.481Z,39.20
2019-04-16T09:38:54.304Z,39.00
2019-04-16T09:41:37.094Z,39.40
2019-04-16T09:44:10.426Z,39.20
2019-04-16T09:46:51.166Z,39.30
2019-04-16T09:49:23.277Z,39.90
2019-04-16T09:51:55.481Z,40.00
2019-04-16T09:54:29.660Z,39.70
2019-04-16T09:57:02.367Z,40.20
2019-04-16T09:59:36.225Z,40.10
2019-04-16T10:02:10.401Z,39.60
2019-04-16T10:04:43.205Z,40.00
2019-04-16T10:07:16.027Z,40.50
2019-04-16T10:09:51.324Z,40.60
2019-04-16T10:12:25.686Z,40.40
2019-04-16T10:15:00.304Z,40.60
2019-04-16T10:17:31.707Z,40.30
2019-04-16T10:20:06.534Z,40.40
2019-04-16T10:22:39.525Z,40.70
2019-04-16T10:25:13.957Z,40.50
2019-04-16T10:27:49.864Z,41.00
2019-04-16T10:30:29.771Z,41.10
2019-04-16T10:33:05.961Z,41.40
2019-04-16T10:35:41.175Z,41.70
2019-04-16T10:38:17.142Z,41.90
2019-04-16T10:40:51.882Z,42.20
2019-04-16T10:43:43.868Z,42.40
2019-04-16T10:46:09.869Z,42.50
2019-04-16T10:48:46.882Z,42.80
2019-04-16T10:51:28.211Z,43.10
2019-04-16T10:54:19.223Z,43.20
2019-04-16T10:57:10.443Z,43.30
2019-04-16T11:00:03.690Z,43.60
2019-04-16T11:02:37.802Z,43.80
2019-04-16T11:05:28.382Z,43.90
2019-04-16T11:08:07.463Z,44.00
2019-04-16T11:10:40.184Z,44.20
2019-04-16T11:13:13.210Z,44.50
2019-04-16T11:15:46.171Z,44.70
2019-04-16T11:18:19.014Z,45.00
2019-04-16T11:20:52.908Z,45.10
2019-04-16T11:23:25.685Z,45.30
2019-04-16T11:25:58.537Z,45.40
2019-04-16T11:28:33.971Z,45.40
2019-04-16T11:31:16.450Z,45.60
2019-04-16T11:33:49.059Z,46.10
2019-04-16T11:36:21.634Z,46.20
2019-04-16T11:38:53.138Z,46.20
2019-04-16T11:41:27.815Z,46.30
2019-04-16T11:44:13.494Z,46.40
2019-04-16T11:46:39.393Z,46.50
2019-04-16T11:49:14.642Z,46.50
2019-04-16T11:51:56.393Z,46.60
2019-04-16T11:54:31.200Z,46.90
2019-04-16T11:57:03.839Z,47.00
2019-04-16T11:59:38.212Z,46.90
2019-04-16T12:02:12.083Z,47.20
2019-04-16T12:04:55.935Z,47.80
2019-04-16T12:07:24.114Z,48.00
2019-04-16T12:10:03.211Z,47.70
2019-04-16T12:12:37.094Z,47.20
2019-04-16T12:15:26.074Z,47.30
2019-04-16T12:18:04.699Z,47.40
2019-04-16T12:20:57.129Z,47.50
2019-04-16T12:23:47.021Z,48.00
2019-04-16T12:26:19.350Z,47.80
2019-04-16T12:28:52.183Z,47.80
2019-04-16T12:31:26.454Z,47.70
2019-04-16T12:34:01.387Z,47.70
2019-04-16T12:36:53.999Z,47.80
2019-04-16T12:39:35.993Z,47.80
2019-04-16T12:42:13.559Z,47.80
2019-04-16T12:45:03.977Z,47.50
2019-04-16T12:47:37.912Z,47.60
2019-04-16T12:50:16.703Z,47.70
2019-04-16T12:52:59.482Z,48.00
2019-04-16T12:55:43.317Z,48.20
2019-04-16T12:58:20.016Z,48.30
2019-04-16T13:00:53.404Z,48.10
2019-04-16T13:03:34.205Z,48.40
2019-04-16T13:06:26.965Z,48.20
2019-04-16T13:09:19.607Z,48.20
2019-04-16T13:11:54.716Z,48.20
2019-04-16T13:14:30.335Z,48.20
2019-04-16T13:17:29.192Z,48.30
2019-04-16T13:20:10.368Z,48.30
2019-04-16T13:22:44.084Z,48.60
2019-04-16T13:25:17.975Z,48.60
2019-04-16T13:27:51.689Z,48.60
2019-04-16T13:30:24.354Z,48.60
2019-04-16T13:32:57.136Z,48.50
2019-04-16T13:35:29.631Z,48.50
2019-04-16T13:38:08.016Z,48.30
2019-04-16T13:40:41.309Z,48.20
2019-04-16T13:43:12.905Z,48.10
2019-04-16T13:45:46.976Z,48.10
2019-04-16T13:48:21.222Z,48.10
2019-04-16T13:50:55.072Z,48.10
2019-04-16T13:53:32.985Z,48.20
2019-04-16T13:56:24.057Z,48.00
2019-04-16T13:59:07.150Z,48.10
2019-04-16T14:01:59.122Z,48.10
2019-04-16T14:04:36.739Z,48.20
2019-04-16T14:07:07.563Z,48.20
2019-04-16T14:09:44.117Z,48.20
2019-04-16T14:12:15.484Z,48.40
2019-04-16T14:14:49.474Z,48.40
2019-04-16T14:17:26.183Z,48.60
2019-04-16T14:19:58.816Z,48.60
2019-04-16T14:22:31.710Z,48.70
2019-04-16T14:25:04.160Z,48.70
2019-04-16T14:27:38.057Z,48.80
2019-04-16T14:30:33.490Z,48.80
2019-04-16T14:33:08.015Z,48.80
2019-04-16T14:35:41.614Z,48.80
2019-04-16T14:38:17.593Z,48.90
2019-04-16T14:40:50.590Z,49.10
2019-04-16T14:43:29.419Z,49.20
2019-04-16T14:46:01.740Z,49.10
2019-04-16T14:48:39.083Z,49.30
2019-04-16T14:51:11.891Z,49.30
2019-04-16T14:53:46.051Z,50.00
2019-04-16T14:56:36.489Z,49.50
2019-04-16T14:59:34.128Z,49.70
2019-04-16T15:02:03.192Z,49.80
2019-04-16T15:04:40.113Z,49.80
2019-04-16T15:07:18.798Z,49.70
2019-04-16T15:09:54.244Z,49.70
2019-04-16T15:12:48.142Z,49.80
2019-04-16T15:15:37.397Z,49.90
2019-04-16T15:18:29.998Z,49.80
2019-04-16T15:21:10.233Z,50.00
2019-04-16T15:23:42.550Z,50.10
2019-04-16T15:26:32.889Z,50.00
2019-04-16T15:29:07.026Z,50.10
2019-04-16T15:31:56.951Z,50.10
2019-04-16T15:34:33.227Z,50.50
2019-04-16T15:37:27.585Z,50.40
2019-04-16T15:40:00.710Z,50.40
2019-04-16T15:42:50.978Z,50.90
2019-04-16T15:45:28.924Z,50.60
2019-04-16T15:48:18.950Z,51.40
2019-04-16T15:51:14.809Z,51.20
2019-04-16T15:53:50.470Z,51.10
2019-04-16T15:56:39.884Z,51.10
2019-04-16T15:59:15.060Z,51.20
2019-04-16T16:02:07.962Z,51.20
2019-04-16T16:04:42.075Z,52.40
2019-04-16T16:07:17.124Z,52.20
2019-04-16T16:09:58.073Z,52.80
2019-04-16T16:12:30.061Z,53.10
2019-04-16T16:15:07.621Z,52.80
2019-04-16T16:17:39.404Z,52.70
2019-04-16T16:20:11.449Z,52.50
2019-04-16T16:22:44.423Z,53.40
2019-04-16T16:25:17.150Z,54.00
2019-04-16T16:27:49.522Z,53.60
2019-04-16T16:30:24.788Z,53.00
2019-04-16T16:32:59.207Z,52.80
2019-04-16T16:35:34.597Z,53.00
2019-04-16T16:38:11.159Z,53.50
2019-04-16T16:40:43.705Z,53.40
2019-04-16T16:43:15.548Z,52.70
2019-04-16T16:46:07.845Z,52.60
2019-04-16T16:48:40.934Z,52.40
2019-04-16T16:51:14.863Z,52.30
2019-04-16T16:54:02.501Z,52.40
2019-04-16T16:56:51.754Z,52.60
2019-04-16T16:59:28.732Z,52.60
2019-04-16T17:02:08.602Z,52.50
2019-04-16T17:04:38.897Z,52.70
2019-04-16T17:07:13.196Z,54.70
2019-04-16T17:09:47.192Z,54.40
2019-04-16T17:12:19.779Z,53.90
2019-04-16T17:14:51.318Z,53.70
2019-04-16T17:17:23.697Z,54.40
2019-04-16T17:20:00.018Z,53.70
2019-04-16T17:22:32.743Z,53.60
2019-04-16T17:25:04.628Z,53.50
2019-04-16T17:27:50.695Z,53.60
2019-04-16T17:30:12.215Z,53.50
2019-04-16T17:32:44.892Z,53.60
2019-04-16T17:35:16.570Z,53.50
2019-04-16T17:37:48.995Z,53.60
2019-04-16T17:40:28.978Z,53.70
2019-04-16T17:43:02.873Z,54.00
2019-04-16T17:45:42.893Z,53.90
2019-04-16T17:48:21.000Z,53.80
2019-04-16T17:51:02.838Z,54.20
2019-04-16T17:53:34.387Z,54.70
2019-04-16T17:56:13.947Z,54.80
2019-04-16T17:59:07.328Z,54.70
2019-04-16T18:01:58.142Z,54.50
2019-04-16T18:04:38.493Z,54.80
2019-04-16T18:07:30.490Z,54.90
2019-04-16T18:10:26.447Z,55.20
2019-04-16T18:13:00.795Z,55.00
2019-04-16T18:15:33.632Z,55.30
2019-04-16T18:18:07.537Z,55.30
2019-04-16T18:20:41.023Z,55.50
2019-04-16T18:23:15.702Z,54.90
2019-04-16T18:26:03.640Z,56.00
2019-04-16T18:28:53.909Z,56.20
2019-04-16T18:31:45.617Z,57.10
2019-04-16T18:34:40.272Z,58.30
2019-04-16T18:37:17.580Z,58.70
2019-04-16T18:40:07.974Z,58.80
2019-04-16T18:43:01.896Z,58.00
2019-04-16T18:45:36.030Z,58.80
2019-04-16T18:48:24.605Z,58.50
2019-04-16T18:50:59.934Z,58.00
2019-04-16T18:53:31.050Z,58.60
2019-04-16T18:56:03.674Z,58.40
2019-04-16T18:58:37.163Z,58.00
2019-04-16T19:01:11.784Z,60.20
2019-04-16T19:03:49.860Z,59.80
2019-04-16T19:06:23.095Z,58.90
2019-04-16T19:08:59.231Z,59.60
2019-04-16T19:11:30.803Z,59.70
2019-04-16T19:14:03.215Z,59.20
2019-04-16T19:16:34.734Z,58.70
2019-04-16T19:19:07.324Z,60.00
2019-04-16T19:21:42.335Z,60.20
2019-04-16T19:24:16.147Z,59.80
2019-04-16T19:26:53.618Z,60.90
2019-04-16T19:29:25.977Z,60.60
2019-04-16T19:31:58.943Z,59.70
2019-04-16T19:34:33.333Z,59.70
2019-04-16T19:37:05.801Z,60.80
2019-04-16T19:39:38.688Z,62.50
2019-04-16T19:42:11.675Z,61.80
2019-04-16T19:44:44.067Z,60.20
2019-04-16T19:47:18.059Z,60.20
2019-04-16T19:49:49.705Z,60.40
2019-04-16T19:52:21.114Z,61.20
2019-04-16T19:54:53.573Z,61.80
2019-04-16T19:57:25.368Z,60.70
2019-04-16T19:59:57.830Z,60.90
2019-04-16T20:02:32.956Z,60.40
2019-04-16T20:05:07.265Z,60.20
2019-04-16T20:07:38.758Z,59.90
2019-04-16T20:10:10.549Z,60.00
2019-04-16T20:12:43.106Z,59.40
2019-04-16T20:15:15.889Z,59.60
2019-04-16T20:17:48.433Z,59.90
2019-04-16T20:20:19.923Z,59.10
2019-04-16T20:22:51.425Z,59.50
2019-04-16T20:25:23.876Z,59.30
2019-04-16T20:27:55.336Z,59.10
2019-04-16T20:30:28.880Z,59.20
2019-04-16T20:33:00.602Z,59.10
2019-04-16T20:35:33.139Z,59.10
2019-04-16T20:38:06.541Z,59.30
2019-04-16T20:40:37.966Z,59.50
2019-04-16T20:43:10.273Z,59.50
2019-04-16T20:45:43.117Z,59.60
2019-04-16T20:48:17.236Z,60.00
2019-04-16T20:50:52.733Z,60.20
2019-04-16T20:53:22.489Z,60.20
2019-04-16T20:55:54.809Z,60.80
2019-04-16T20:58:30.661Z,60.20
2019-04-16T21:01:02.647Z,60.30
2019-04-16T21:03:33.925Z,60.40
2019-04-16T21:06:07.818Z,60.40
2019-04-16T21:08:39.881Z,60.40
2019-04-16T21:11:11.448Z,60.60
2019-04-16T21:13:42.952Z,60.50
2019-04-16T21:16:16.948Z,60.50
2019-04-16T21:18:48.413Z,62.20
2019-04-16T21:21:23.563Z,63.60
2019-04-16T21:23:53.944Z,64.00
2019-04-16T21:26:29.578Z,63.80
2019-04-16T21:29:03.626Z,62.90
2019-04-16T21:31:42.297Z,62.50
2019-04-16T21:34:24.220Z,62.00
2019-04-16T21:37:10.668Z,63.10
2019-04-16T21:39:47.083Z,62.80
2019-04-16T21:42:17.474Z,62.40
2019-04-16T21:44:48.974Z,65.30
2019-04-16T21:47:23.140Z,65.70
2019-04-16T21:49:52.902Z,65.20
2019-04-16T21:52:24.470Z,63.90
2019-04-16T21:54:56.024Z,63.40
2019-04-16T21:57:27.693Z,63.30
2019-04-16T21:59:59.425Z,64.70
2019-04-16T22:02:34.634Z,63.60
2019-04-16T22:05:06.916Z,63.10
2019-04-16T22:07:38.500Z,63.00
2019-04-16T22:10:10.128Z,62.00
2019-04-16T22:12:44.807Z,62.30
2019-04-16T22:15:15.704Z,62.20
2019-04-16T22:17:48.115Z,62.20
2019-04-16T22:20:20.788Z,62.00
2019-04-16T22:22:53.793Z,61.90
2019-04-16T22:25:26.893Z,62.00
2019-04-16T22:28:01.742Z,62.00
2019-04-16T22:30:36.608Z,61.70
2019-04-16T22:33:09.243Z,62.60
2019-04-16T22:35:40.916Z,62.60
2019-04-16T22:38:14.313Z,62.00
2019-04-16T22:41:04.532Z,61.80
2019-04-16T22:43:42.627Z,62.30
2019-04-16T22:46:31.919Z,62.00
2019-04-16T22:49:04.533Z,62.30
2019-04-16T22:51:39.771Z,62.00
2019-04-16T22:54:10.650Z,62.30
2019-04-16T22:56:43.287Z,62.50
2019-04-16T22:59:14.311Z,62.80
2019-04-16T23:01:48.110Z,62.80
2019-04-16T23:04:22.821Z,63.20
2019-04-16T23:06:55.088Z,64.40
2019-04-16T23:09:28.050Z,63.50
2019-04-16T23:11:59.735Z,63.70
2019-04-16T23:14:31.700Z,63.60
2019-04-16T23:17:03.956Z,63.80
2019-04-16T23:19:36.305Z,63.60
2019-04-16T23:22:14.050Z,63.80
2019-04-16T23:24:42.873Z,63.70
2019-04-16T23:27:16.033Z,63.80
2019-04-16T23:29:48.219Z,64.40
2019-04-16T23:32:21.372Z,63.60
2019-04-16T23:34:55.749Z,63.70
2019-04-16T23:37:27.434Z,63.70
2019-04-16T23:39:58.887Z,63.60
2019-04-16T23:42:32.479Z,63.50
2019-04-16T23:45:09.470Z,63.60
2019-04-16T23:48:00.302Z,63.40
2019-04-16T23:50:44.297Z,63.20
2019-04-16T23:53:24.740Z,63.40
2019-04-16T23:55:58.637Z,63.30
2019-04-16T23:58:32.662Z,63.40
